Details From HTMW - Mwanza
To HRYR - Kigali Intl
Flight Number -
Tags Generated
Created
Modified
Stats Distance 170 nm / 315 km
Max Altitude 0 ft / 0 m
Waypoints 2
Social Downloads 0
Likes 0
Share VATSIM

Download

Looking for another format? Having issues loading an existing format? Contact us
Advertisement - Login to hide

Notes

Generated

Route

HTMW HRYR

ID Type Via Altitude Latitude Longitude Leg Dist Tot Dist Heading (true) Name
O HTMW APT - 0 ft / 0 m -2.43823˚ 32.92012˚ - 0 nm - -
O HRYR APT - 0 ft / 0 m -1.96590˚ 30.12394˚ 170 nm 170 nm 280° / 280° -

Altitude Profile

Advertisement - Login to hide

Weather


0- 5 10 15 20 25 30 35+ Temperature / ° C

Clouds and Precipitation
Forecast for 2018-05-21 12:00 UTC. Updated 2 minutes ago

Ground ~20,000 ft ~40,000 ft Winds

HTMW

Details ICAO HTMW (MWZ)
Name MWANZA
Region Tanzania
Timezone Africa/Dar_es_Salaam (UTC+3.0)
Stats Elevation 3,763 ft / 1,147 m (AMSL)
Location -2.444485° 32.932665°
Runways 1
Magnetic Variation 0.890° E

METAR

HTMW 211000Z 20010KT 9999 SCT027 FEW028CB 27/17 Q1016 NOSIG

Decode

TAF

HTMW 210500Z 2106/2206 12010KT 9999 FEW024 FEW025CB BECMG 2111/2113 32010KT BECMG 2202/2205 15010KT FEW019 FEW020 SCT090

Decode

Departure Runways

ID Width Length Bearing (true) Bearing (mag) Surface Threshold Offset Overrun Length
12 148 ft / 45 m 10,223 ft / 3,116 m 116.54° 115.65° Asphalt 300 ft / 91 m 615 ft / 187 m
30 148 ft / 45 m 10,223 ft / 3,116 m 296.54° 295.65° Asphalt 0 ft / 0 m 0 ft / 0 m

HRYR

Details ICAO HRYR (KGL)
Name KIGALI INTL
Region Rwanda
Timezone Africa/Kigali (UTC+2.0)
Stats Elevation 4,859 ft / 1,481 m (AMSL)
Location -1.968628° 30.139450°
Runways 1
Magnetic Variation 1.237° E

METAR

HRYR 211100Z 16005KT 110V220 9999 BKN025 23/16 Q1019 NOSIG

Decode

TAF

Not found

Destination Runways

ID Width Length Bearing (true) Bearing (mag) Surface Threshold Offset Overrun Length
10 148 ft / 45 m 11,485 ft / 3,501 m 99.97° 98.73° Asphalt 0 ft / 0 m 66 ft / 20 m
28 148 ft / 45 m 11,485 ft / 3,501 m 279.97° 278.73° Asphalt 705 ft / 215 m 66 ft / 20 m

Approach Navaids

Runway Type Ident Frequency Range Bearing (true) Bearing (mag) Slope Elevation
28 Localiser IKNB 109.90 MHz 18 nm / 33 km 279.95° 278.71° - 4,859 ft / 1,481 m (AMSL)
28 Glidescope IKNB 109.90 MHz 10 nm / 19 km 279.97° 278.73° 3.00° 4,859 ft / 1,481 m (AMSL)